Crosstown, Tennessee
Current Conditions -  °F | °C
As of 1:50 PM on Thursday 30 Oct 2014 (Local Time) from KNQA Reporting Station
Clear Clear  
Wind Chill: 68°   Ceiling: Unl
Heat Index: 68°   Visibility: 10mi
Dew Point: 41°   Wind: 3mph
Humidity: 37%   Direction: NA
Pressure: 30.09"   Gusts: NA
Location:  35.4184°N, 89.8065°W
Report Text: KNQA 301850Z VRB03KT 10SM SKC 20/05 A3009
Loading
Personal Weather Stations






























Interactive Weather Map
Tropical Storm Tracking
New forecast layout! Learn more

10-Day Weather Forecast

Advertisements
Track Severe Weather on mobile